createdAt,value
2023-05-05T00:00:24.989Z,52.14
2023-05-05T00:02:19.590Z,52.26
2023-05-05T00:07:34.284Z,51.61
2023-05-05T00:11:43.793Z,52.36
2023-05-05T00:13:41.891Z,52.04
2023-05-05T00:19:33.753Z,52.83
2023-05-05T00:20:57.361Z,53.00
2023-05-05T00:24:03.920Z,52.53
2023-05-05T01:25:03.174Z,55.74
2023-05-05T01:53:45.039Z,57.86
2023-05-05T02:13:01.040Z,57.54
2023-05-05T02:14:05.322Z,56.85
2023-05-05T02:15:50.349Z,57.15
2023-05-05T02:17:04.456Z,57.65
2023-05-05T02:19:43.251Z,57.10
2023-05-05T02:25:26.850Z,58.67
2023-05-05T02:26:29.808Z,58.58
2023-05-05T02:27:46.015Z,57.69
2023-05-05T02:39:07.520Z,59.12
2023-05-05T02:40:11.581Z,58.24
2023-05-05T02:41:30.150Z,58.03
2023-05-05T02:42:44.591Z,57.92
2023-05-05T02:43:49.284Z,57.98
2023-05-05T02:45:04.753Z,57.94
2023-05-05T02:46:21.874Z,58.33
2023-05-05T02:47:34.315Z,58.70
2023-05-05T02:48:57.738Z,57.60
2023-05-05T02:51:13.536Z,58.25
2023-05-05T02:52:35.877Z,58.20
2023-05-05T02:53:44.069Z,58.51
2023-05-05T03:05:22.836Z,58.58
2023-05-05T03:06:45.780Z,58.47
2023-05-05T03:08:36.531Z,58.39
2023-05-05T03:13:18.118Z,58.76
2023-05-05T03:14:24.942Z,59.43
2023-05-05T03:15:42.868Z,59.15
2023-05-05T03:16:51.071Z,59.24
2023-05-05T03:17:57.883Z,58.50
2023-05-05T03:47:26.295Z,59.51
2023-05-05T03:50:57.048Z,59.56
2023-05-05T03:52:17.838Z,59.78
2023-05-05T04:02:56.375Z,60.74
2023-05-05T04:03:58.194Z,60.40
2023-05-05T04:05:07.269Z,59.95
2023-05-05T04:06:21.422Z,59.85
2023-05-05T04:07:25.515Z,59.94
2023-05-05T04:08:30.522Z,59.74
2023-05-05T04:09:44.589Z,59.79
2023-05-05T04:11:25.556Z,60.09
2023-05-05T04:12:27.301Z,60.03
2023-05-05T04:13:34.869Z,60.07
2023-05-05T04:14:51.288Z,60.91
2023-05-05T04:16:01.739Z,60.99
2023-05-05T04:20:18.051Z,59.39
2023-05-05T04:21:25.297Z,59.60
2023-05-05T04:22:34.654Z,59.43
2023-05-05T04:23:46.575Z,59.14
2023-05-05T04:24:50.922Z,59.26
2023-05-05T04:26:10.805Z,59.02
2023-05-05T04:27:12.774Z,59.06
2023-05-05T04:28:14.803Z,59.01
2023-05-05T04:29:16.600Z,58.28
2023-05-05T04:30:18.210Z,59.02
2023-05-05T04:31:19.883Z,59.54
2023-05-05T04:32:21.796Z,59.35
2023-05-05T04:33:23.640Z,58.87
2023-05-05T04:34:25.173Z,58.64
2023-05-05T04:35:26.711Z,59.00
2023-05-05T04:36:29.766Z,58.94
2023-05-05T04:37:34.409Z,58.42
2023-05-05T04:38:36.920Z,58.33
2023-05-05T04:39:38.571Z,58.52
2023-05-05T04:40:41.319Z,58.47
2023-05-05T04:41:45.404Z,58.09
2023-05-05T04:42:47.369Z,58.06
2023-05-05T04:48:11.880Z,58.45
2023-05-05T04:49:29.387Z,58.23
2023-05-05T04:50:32.870Z,57.99
2023-05-05T04:51:34.562Z,58.60
2023-05-05T04:52:36.145Z,58.49
2023-05-05T04:53:37.650Z,58.76
2023-05-05T04:54:39.179Z,59.21
2023-05-05T04:55:40.805Z,58.96
2023-05-05T05:10:23.174Z,59.54
2023-05-05T05:11:25.019Z,59.86
2023-05-05T05:16:20.791Z,60.01
2023-05-05T05:18:07.151Z,59.29
2023-05-05T05:19:08.745Z,58.70
2023-05-05T05:20:10.857Z,58.28
2023-05-05T05:21:12.548Z,58.88
2023-05-05T05:22:14.041Z,57.41
2023-05-05T05:23:15.479Z,56.87
2023-05-05T05:24:16.962Z,55.74
2023-05-05T05:25:18.413Z,55.47
2023-05-05T05:26:20.099Z,56.72
2023-05-05T05:27:21.604Z,59.26
2023-05-05T05:28:31.681Z,58.42
2023-05-05T05:29:34.180Z,58.70
2023-05-05T05:30:35.803Z,59.44
2023-05-05T05:31:43.422Z,58.02
2023-05-05T05:32:45.187Z,57.54
2023-05-05T05:33:48.531Z,57.19
2023-05-05T05:34:50.115Z,56.90
2023-05-05T05:35:52.344Z,54.57
2023-05-05T05:36:54.529Z,54.30
2023-05-05T05:37:56.908Z,53.75
2023-05-05T05:38:58.970Z,53.89
2023-05-05T05:40:01.162Z,53.89
2023-05-05T05:41:07.941Z,53.34
2023-05-05T05:42:10.426Z,53.23
2023-05-05T05:43:12.475Z,51.87
2023-05-05T05:44:14.138Z,53.04
2023-05-05T05:45:15.738Z,50.88
2023-05-05T05:46:17.373Z,51.70
2023-05-05T05:47:19.271Z,51.66
2023-05-05T05:48:22.154Z,52.77
2023-05-05T05:49:25.577Z,53.10
2023-05-05T05:50:36.839Z,52.65
2023-05-05T05:51:43.106Z,51.16
2023-05-05T05:52:44.923Z,49.54
2023-05-05T05:54:18.291Z,50.01
2023-05-05T06:00:04.871Z,49.49
2023-05-05T06:01:09.514Z,48.81
2023-05-05T06:02:21.152Z,47.58
2023-05-05T06:03:55.517Z,47.70
2023-05-05T06:05:01.250Z,46.87
2023-05-05T06:06:16.528Z,47.43
2023-05-05T06:07:24.649Z,48.53
2023-05-05T06:08:29.027Z,48.77
2023-05-05T06:09:42.639Z,48.30
2023-05-05T06:10:56.171Z,48.15
2023-05-05T06:12:00.943Z,47.84
2023-05-05T06:13:02.838Z,48.10
2023-05-05T06:14:04.718Z,47.30
2023-05-05T06:15:07.027Z,47.61
2023-05-05T06:16:08.988Z,46.14
2023-05-05T06:17:10.894Z,46.30
2023-05-05T06:18:30.453Z,46.42
2023-05-05T06:24:18.245Z,46.11
2023-05-05T06:25:37.186Z,44.82
2023-05-05T06:27:11.458Z,44.88
2023-05-05T06:28:52.405Z,45.15
2023-05-05T06:30:14.931Z,44.96
2023-05-05T06:31:24.213Z,44.97
2023-05-05T06:32:36.817Z,45.25
2023-05-05T06:33:41.347Z,44.82
2023-05-05T06:34:48.525Z,44.20
2023-05-05T06:36:00.754Z,43.62
2023-05-05T06:37:21.167Z,42.57
2023-05-05T06:38:25.488Z,42.85
2023-05-05T06:39:33.155Z,42.91
2023-05-05T06:40:59.945Z,42.87
2023-05-05T06:42:39.757Z,42.86
2023-05-05T06:43:44.446Z,42.88
2023-05-05T06:44:46.515Z,43.23
2023-05-05T06:45:57.273Z,42.42
2023-05-05T06:47:15.507Z,42.76
2023-05-05T06:48:17.166Z,43.11
2023-05-05T06:49:58.672Z,43.06
2023-05-05T08:16:06.042Z,38.69
2023-05-05T08:17:58.897Z,38.97
2023-05-05T08:23:57.568Z,39.50
2023-05-05T08:34:29.376Z,38.66
2023-05-05T08:41:41.426Z,38.24
2023-05-05T08:42:48.891Z,38.27
2023-05-05T08:43:57.014Z,38.44
2023-05-05T08:45:22.292Z,39.06
2023-05-05T08:47:32.336Z,38.92
2023-05-05T08:48:50.456Z,38.09
2023-05-05T08:50:25.383Z,38.66
2023-05-05T08:51:51.729Z,38.66
2023-05-05T08:53:32.674Z,38.91
2023-05-05T08:54:49.731Z,38.97
2023-05-05T08:55:53.071Z,39.26
2023-05-05T08:57:07.741Z,39.34
2023-05-05T08:58:20.539Z,39.52
2023-05-05T08:59:39.174Z,39.42
2023-05-05T09:01:01.848Z,39.37
2023-05-05T09:02:24.951Z,39.13
2023-05-05T09:03:39.751Z,39.29
2023-05-05T09:04:45.547Z,39.61
2023-05-05T09:08:11.712Z,40.43
2023-05-05T09:11:05.108Z,41.03
2023-05-05T09:12:35.494Z,40.96
2023-05-05T09:13:57.706Z,40.57
2023-05-05T09:19:31.580Z,42.03
2023-05-05T09:20:44.697Z,41.57
2023-05-05T09:22:46.495Z,41.56
2023-05-05T09:24:52.944Z,42.44
2023-05-05T09:26:19.758Z,41.88
2023-05-05T09:27:35.254Z,41.37
2023-05-05T09:30:53.917Z,42.08
2023-05-05T09:32:24.924Z,42.50
2023-05-05T09:36:03.505Z,42.62
2023-05-05T09:37:08.070Z,40.81
2023-05-05T09:38:45.400Z,40.67
2023-05-05T09:45:03.199Z,41.00
2023-05-05T09:51:47.513Z,41.81
2023-05-05T09:57:19.520Z,41.93
2023-05-05T09:59:56.987Z,41.31
2023-05-05T10:05:32.663Z,40.81
2023-05-05T10:06:53.881Z,40.91
2023-05-05T10:15:20.239Z,42.47
2023-05-05T10:34:24.475Z,40.44
2023-05-05T10:37:27.261Z,40.13
2023-05-05T10:38:34.561Z,38.53
2023-05-05T10:53:31.396Z,38.29
2023-05-05T10:57:12.864Z,38.52
2023-05-05T10:58:59.723Z,37.53
2023-05-05T11:01:12.491Z,38.21
2023-05-05T11:02:29.430Z,38.57
2023-05-05T11:03:45.752Z,38.85
2023-05-05T11:05:54.840Z,40.08
2023-05-05T11:07:45.065Z,40.03
2023-05-05T11:09:19.912Z,41.08
2023-05-05T11:10:58.118Z,40.78
2023-05-05T11:13:41.067Z,40.15
2023-05-05T11:14:42.882Z,39.44
2023-05-05T11:18:17.340Z,39.65
2023-05-05T11:20:01.842Z,40.63
2023-05-05T11:22:07.422Z,39.80
2023-05-05T11:24:44.877Z,39.74
2023-05-05T11:26:55.936Z,39.92
2023-05-05T11:28:09.059Z,40.46
2023-05-05T11:30:22.977Z,40.99
2023-05-05T11:34:07.526Z,40.71
2023-05-05T11:35:47.198Z,41.76
2023-05-05T12:12:20.252Z,43.68
2023-05-05T12:59:58.243Z,47.06
2023-05-05T13:06:48.168Z,47.15
2023-05-05T13:08:00.583Z,47.17
2023-05-05T13:09:05.630Z,47.42
2023-05-05T13:10:13.507Z,47.22
2023-05-05T13:11:15.022Z,47.59
2023-05-05T13:12:23.323Z,47.74
2023-05-05T13:13:26.532Z,48.00
2023-05-05T13:14:28.292Z,47.71
2023-05-05T13:15:29.971Z,47.89
2023-05-05T13:16:32.322Z,47.98
2023-05-05T13:17:34.864Z,47.61
2023-05-05T13:18:49.890Z,47.90
2023-05-05T13:19:52.251Z,48.23
2023-05-05T13:20:54.280Z,47.73
2023-05-05T13:21:59.776Z,47.46
2023-05-05T13:23:02.099Z,47.20
2023-05-05T13:25:10.000Z,47.03
2023-05-05T13:26:13.560Z,46.76
2023-05-05T13:27:17.243Z,47.27
2023-05-05T13:28:18.758Z,47.26
2023-05-05T13:29:20.308Z,47.02
2023-05-05T13:30:21.906Z,47.13
2023-05-05T13:31:29.107Z,46.81
2023-05-05T13:32:31.387Z,45.92
2023-05-05T13:33:45.460Z,46.08
2023-05-05T13:34:47.035Z,45.53
2023-05-05T13:35:48.816Z,45.38
2023-05-05T13:36:50.360Z,45.87
2023-05-05T13:37:52.365Z,46.04
2023-05-05T13:38:54.069Z,45.91
2023-05-05T13:39:59.388Z,46.50
2023-05-05T13:41:01.036Z,46.36
2023-05-05T13:42:03.025Z,46.38
2023-05-05T13:43:04.665Z,46.02
2023-05-05T13:44:06.256Z,46.29
2023-05-05T13:45:08.402Z,46.48
2023-05-05T13:46:19.721Z,44.81
2023-05-05T13:47:21.797Z,44.14
2023-05-05T13:48:24.074Z,44.18
2023-05-05T13:49:25.845Z,44.23
2023-05-05T13:50:27.487Z,44.22
2023-05-05T13:51:30.085Z,44.41
2023-05-05T13:52:33.146Z,43.70
2023-05-05T13:53:35.320Z,42.87
2023-05-05T13:54:36.894Z,42.32
2023-05-05T13:55:38.642Z,42.09
2023-05-05T13:56:40.143Z,41.63
2023-05-05T13:57:42.209Z,41.31
2023-05-05T13:58:44.379Z,41.03
2023-05-05T13:59:45.951Z,40.54
2023-05-05T14:00:47.767Z,40.47
2023-05-05T14:01:49.587Z,40.42
2023-05-05T14:02:51.694Z,40.34
2023-05-05T14:03:54.942Z,40.12
2023-05-05T14:04:58.488Z,39.44
2023-05-05T14:06:00.009Z,40.02
2023-05-05T14:07:01.655Z,39.99
2023-05-05T14:08:03.688Z,39.99
2023-05-05T14:09:06.499Z,40.50
2023-05-05T14:10:09.178Z,40.42
2023-05-05T14:11:10.803Z,41.38
2023-05-05T14:12:12.449Z,41.62
2023-05-05T14:13:15.517Z,41.58
2023-05-05T14:14:17.974Z,41.73
2023-05-05T14:15:19.789Z,41.36
2023-05-05T14:16:21.361Z,41.55
2023-05-05T14:17:23.433Z,41.71
2023-05-05T14:18:25.687Z,41.74
2023-05-05T14:19:27.625Z,42.06
2023-05-05T14:20:29.253Z,42.30
2023-05-05T14:21:33.354Z,42.45
2023-05-05T14:22:34.895Z,42.55
2023-05-05T14:23:36.903Z,43.03
2023-05-05T14:24:39.097Z,43.20
2023-05-05T14:25:40.740Z,43.76
2023-05-05T14:26:42.284Z,44.08
2023-05-05T14:27:44.322Z,44.31
2023-05-05T14:28:49.574Z,44.71
2023-05-05T14:29:51.527Z,44.88
2023-05-05T14:30:53.032Z,45.15
2023-05-05T14:31:54.615Z,45.15
2023-05-05T14:32:56.395Z,45.50
2023-05-05T14:33:58.662Z,45.81
2023-05-05T14:35:00.393Z,45.86
2023-05-05T14:36:01.969Z,46.03
2023-05-05T14:37:03.673Z,46.87
2023-05-05T14:38:05.355Z,46.38
2023-05-05T14:39:07.134Z,46.55
2023-05-05T14:40:09.400Z,47.09
2023-05-05T14:41:11.742Z,46.99
2023-05-05T14:42:13.347Z,46.46
2023-05-05T14:43:14.842Z,47.06
2023-05-05T14:44:16.552Z,46.86
2023-05-05T14:45:18.118Z,47.11
2023-05-05T14:46:20.246Z,47.40
2023-05-05T14:47:21.708Z,47.25
2023-05-05T14:48:23.368Z,47.62
2023-05-05T14:49:27.166Z,47.85
2023-05-05T14:50:28.923Z,47.87
2023-05-05T14:51:31.480Z,47.48
2023-05-05T14:52:33.044Z,47.95
2023-05-05T14:53:34.859Z,48.49
2023-05-05T14:54:36.500Z,48.88
2023-05-05T14:55:38.352Z,48.95
2023-05-05T14:56:40.115Z,48.90
2023-05-05T14:57:41.804Z,49.03
2023-05-05T14:58:43.817Z,48.81
2023-05-05T14:59:45.892Z,48.95
2023-05-05T15:00:47.954Z,49.41
2023-05-05T15:01:49.640Z,49.71
2023-05-05T15:02:51.343Z,49.74
2023-05-05T15:03:54.084Z,49.66
2023-05-05T15:04:55.712Z,49.73
2023-05-05T15:05:58.110Z,49.40
2023-05-05T15:06:59.722Z,50.17
2023-05-05T15:08:01.299Z,50.11
2023-05-05T15:09:02.909Z,49.54
2023-05-05T15:10:05.106Z,49.39
2023-05-05T15:11:07.307Z,48.71
2023-05-05T15:13:24.494Z,47.99
2023-05-05T15:14:45.344Z,48.29
2023-05-05T15:15:47.410Z,48.23
2023-05-05T15:16:48.932Z,48.20
2023-05-05T15:17:50.524Z,48.16
2023-05-05T15:18:52.240Z,48.25
2023-05-05T15:19:53.865Z,48.28
2023-05-05T15:20:55.516Z,48.01
2023-05-05T15:21:57.058Z,48.33
2023-05-05T15:22:58.500Z,48.22
2023-05-05T15:23:59.989Z,47.71
2023-05-05T15:25:01.622Z,48.18
2023-05-05T15:26:03.250Z,47.54
2023-05-05T15:27:04.824Z,47.66
2023-05-05T15:28:06.436Z,47.96
2023-05-05T15:29:07.964Z,48.37
2023-05-05T15:30:11.249Z,48.46
2023-05-05T15:31:15.633Z,47.85
2023-05-05T15:32:17.198Z,47.71
2023-05-05T15:33:18.750Z,48.09
2023-05-05T15:34:20.752Z,47.49
2023-05-05T15:35:25.422Z,47.68
2023-05-05T15:36:28.694Z,47.66
2023-05-05T15:37:30.300Z,47.63
2023-05-05T15:38:31.883Z,47.53
2023-05-05T15:39:33.396Z,47.63
2023-05-05T15:40:35.223Z,47.87
2023-05-05T15:41:36.789Z,47.66
2023-05-05T15:42:39.140Z,47.84
2023-05-05T15:43:40.827Z,48.33
2023-05-05T15:44:42.367Z,48.28
2023-05-05T15:45:44.048Z,48.09
2023-05-05T15:46:49.821Z,47.86
2023-05-05T15:47:52.937Z,48.33
2023-05-05T15:48:54.489Z,48.80
2023-05-05T15:49:56.178Z,48.61
2023-05-05T15:50:57.639Z,48.90
2023-05-05T15:51:59.217Z,49.11
2023-05-05T15:53:00.865Z,49.00
2023-05-05T15:54:02.408Z,48.91
2023-05-05T15:55:04.302Z,49.04
2023-05-05T15:56:06.010Z,48.85
2023-05-05T15:57:08.123Z,48.71
2023-05-05T15:58:09.816Z,48.42
2023-05-05T15:59:11.388Z,48.60
2023-05-05T16:00:13.948Z,48.65
2023-05-05T16:01:15.506Z,48.64
2023-05-05T16:02:17.123Z,48.30
2023-05-05T16:03:18.802Z,48.51
2023-05-05T16:04:24.111Z,48.87
2023-05-05T16:05:25.782Z,49.50
2023-05-05T16:06:27.995Z,49.65
2023-05-05T16:07:29.742Z,50.18
2023-05-05T16:08:32.227Z,51.51
2023-05-05T16:09:36.426Z,51.58
2023-05-05T16:10:38.092Z,51.82
2023-05-05T16:11:39.688Z,51.86
2023-05-05T16:12:41.354Z,52.10
2023-05-05T16:13:43.028Z,52.20
2023-05-05T16:14:44.561Z,52.37
2023-05-05T16:15:46.443Z,52.45
2023-05-05T16:16:48.242Z,52.15
2023-05-05T16:17:49.996Z,52.92
2023-05-05T16:18:51.663Z,53.71
2023-05-05T16:19:53.607Z,53.69
2023-05-05T16:20:57.720Z,53.64
2023-05-05T16:21:59.274Z,53.85
2023-05-05T16:23:00.879Z,54.20
2023-05-05T16:24:02.455Z,54.18
2023-05-05T16:25:04.380Z,54.85
2023-05-05T16:26:06.073Z,54.84
2023-05-05T16:27:07.758Z,55.29
2023-05-05T16:28:09.304Z,55.26
2023-05-05T16:29:11.555Z,55.77
2023-05-05T16:30:15.381Z,55.70
2023-05-05T16:31:17.845Z,55.76
2023-05-05T16:32:19.462Z,56.10
2023-05-05T16:33:21.122Z,56.63
2023-05-05T16:34:22.690Z,56.35
2023-05-05T16:35:24.205Z,56.63
2023-05-05T16:36:26.244Z,56.88
2023-05-05T16:37:27.919Z,57.46
2023-05-05T16:38:29.647Z,57.84
2023-05-05T16:39:33.064Z,58.29
2023-05-05T16:40:37.237Z,58.62
2023-05-05T16:41:39.473Z,59.18
2023-05-05T16:42:42.360Z,59.58
2023-05-05T16:43:46.895Z,60.22
2023-05-05T16:44:48.461Z,60.74
2023-05-05T16:45:50.036Z,60.83
2023-05-05T16:46:51.640Z,60.79
2023-05-05T16:47:55.361Z,61.39
2023-05-05T16:48:57.203Z,61.78
2023-05-05T16:49:58.722Z,61.62
2023-05-05T16:51:00.246Z,61.83
2023-05-05T16:52:02.302Z,61.85
2023-05-05T16:53:04.437Z,61.63
2023-05-05T16:54:06.117Z,61.12
2023-05-05T16:55:08.320Z,60.75
2023-05-05T16:56:13.179Z,60.90
2023-05-05T16:57:14.831Z,60.96
2023-05-05T16:58:16.452Z,61.50
2023-05-05T16:59:19.305Z,61.40
2023-05-05T17:00:20.797Z,61.31
2023-05-05T17:01:22.554Z,61.42
2023-05-05T17:02:24.227Z,61.59
2023-05-05T17:03:26.557Z,61.38
2023-05-05T17:04:28.191Z,61.28
2023-05-05T17:05:29.813Z,61.35
2023-05-05T17:06:34.181Z,61.78
2023-05-05T17:07:35.842Z,61.49
2023-05-05T17:08:37.459Z,61.78
2023-05-05T17:09:39.085Z,61.84
2023-05-05T17:10:42.587Z,62.13
2023-05-05T17:11:44.082Z,62.45
2023-05-05T17:12:45.783Z,62.82
2023-05-05T17:13:47.314Z,63.40
2023-05-05T17:14:48.807Z,63.55
2023-05-05T17:15:50.570Z,63.69
2023-05-05T17:16:53.662Z,64.06
2023-05-05T17:17:55.276Z,64.03
2023-05-05T17:18:56.934Z,63.70
2023-05-05T17:19:58.798Z,63.96
2023-05-05T17:21:00.350Z,64.09
2023-05-05T17:22:01.893Z,64.17
2023-05-05T17:23:03.582Z,63.83
2023-05-05T17:24:05.699Z,63.85
2023-05-05T17:25:08.654Z,63.74
2023-05-05T17:26:15.109Z,63.43
2023-05-05T17:27:24.440Z,63.78
2023-05-05T17:28:26.066Z,64.14
2023-05-05T17:29:27.667Z,63.81
2023-05-05T17:30:29.375Z,63.06
2023-05-05T17:31:31.040Z,62.71
2023-05-05T17:32:32.630Z,62.31
2023-05-05T17:33:34.152Z,62.31
2023-05-05T17:34:35.715Z,62.41
2023-05-05T17:35:38.566Z,62.68
2023-05-05T17:36:40.196Z,62.50
2023-05-05T17:37:41.884Z,62.88
2023-05-05T17:38:43.405Z,63.10
2023-05-05T17:39:44.932Z,62.92
2023-05-05T17:40:46.948Z,62.78
2023-05-05T17:41:48.455Z,63.05
2023-05-05T17:42:50.180Z,62.63
2023-05-05T17:43:51.983Z,62.44
2023-05-05T17:44:53.735Z,62.37
2023-05-05T17:45:55.737Z,62.38
2023-05-05T17:46:57.533Z,62.39
2023-05-05T17:47:59.258Z,62.39
2023-05-05T17:49:04.386Z,62.68
2023-05-05T17:50:08.544Z,62.94
2023-05-05T17:51:10.153Z,63.08
2023-05-05T17:52:12.852Z,63.28
2023-05-05T17:53:27.438Z,63.61
2023-05-05T17:56:05.217Z,63.92
2023-05-05T17:57:32.456Z,64.17
2023-05-05T17:58:39.244Z,64.54
2023-05-05T17:59:47.243Z,64.70
2023-05-05T18:00:48.937Z,64.75
2023-05-05T18:04:16.055Z,64.24
2023-05-05T18:12:22.979Z,64.56
2023-05-05T18:13:23.376Z,64.60
2023-05-05T18:15:13.144Z,64.63
2023-05-05T18:18:21.132Z,64.14
2023-05-05T18:20:08.112Z,64.27
2023-05-05T18:21:12.429Z,64.36
2023-05-05T18:22:17.197Z,64.10
2023-05-05T18:23:18.927Z,64.15
2023-05-05T18:25:13.040Z,63.90
2023-05-05T18:26:14.717Z,64.11
2023-05-05T18:27:16.865Z,64.14
2023-05-05T18:30:47.729Z,64.19
2023-05-05T18:31:53.047Z,64.03
2023-05-05T18:32:54.952Z,64.09
2023-05-05T18:34:16.904Z,64.26
2023-05-05T18:35:19.465Z,64.58
2023-05-05T18:36:21.274Z,64.75
2023-05-05T18:37:23.009Z,65.06
2023-05-05T18:38:24.773Z,65.35
2023-05-05T18:39:26.820Z,65.36
2023-05-05T18:40:28.413Z,65.71
2023-05-05T18:41:30.665Z,66.16
2023-05-05T18:42:32.241Z,66.16
2023-05-05T18:43:33.767Z,66.34
2023-05-05T18:44:35.724Z,66.43
2023-05-05T18:45:37.181Z,67.22
2023-05-05T18:46:38.738Z,67.29
2023-05-05T18:47:41.422Z,67.07
2023-05-05T18:48:42.961Z,66.94
2023-05-05T18:49:45.527Z,67.30
2023-05-05T18:50:47.788Z,67.49
2023-05-05T18:51:49.266Z,67.86
2023-05-05T18:52:50.848Z,67.76
2023-05-05T18:53:52.413Z,67.90
2023-05-05T18:54:53.966Z,68.23
2023-05-05T18:55:55.576Z,68.46
2023-05-05T18:56:57.401Z,68.12
2023-05-05T18:57:58.901Z,68.23
2023-05-05T18:59:00.486Z,68.41
2023-05-05T19:00:02.238Z,69.17
2023-05-05T19:01:03.836Z,69.67
2023-05-05T19:02:06.826Z,70.12
2023-05-05T19:03:17.683Z,70.01
2023-05-05T19:04:30.736Z,70.08
2023-05-05T19:05:33.220Z,70.09
2023-05-05T19:06:38.954Z,70.02
2023-05-05T19:07:43.467Z,69.97
2023-05-05T19:08:45.878Z,69.95
2023-05-05T19:10:07.429Z,70.15
2023-05-05T19:11:10.279Z,70.06
2023-05-05T19:13:45.530Z,70.43
2023-05-05T19:19:59.517Z,70.90
2023-05-05T19:21:12.238Z,71.12
2023-05-05T19:22:32.602Z,71.22
2023-05-05T19:23:36.196Z,71.23
2023-05-05T19:24:56.390Z,70.96
2023-05-05T19:26:09.382Z,70.73
2023-05-05T19:27:39.788Z,70.44
2023-05-05T19:28:43.618Z,66.00
2023-05-05T19:29:57.746Z,65.42
2023-05-05T19:31:23.979Z,63.85
2023-05-05T19:32:48.743Z,64.17
2023-05-05T19:35:57.675Z,65.72
2023-05-05T19:37:07.652Z,66.46
2023-05-05T19:38:51.859Z,67.20
2023-05-05T19:40:02.141Z,67.94
2023-05-05T19:41:03.763Z,68.52
2023-05-05T19:42:09.695Z,69.29
2023-05-05T19:43:11.874Z,69.38
2023-05-05T19:44:14.004Z,69.56
2023-05-05T19:45:16.058Z,69.85
2023-05-05T19:46:17.723Z,69.80
2023-05-05T19:47:19.664Z,70.22
2023-05-05T19:48:21.494Z,70.47
2023-05-05T19:49:36.259Z,70.28
2023-05-05T19:50:50.692Z,70.20
2023-05-05T19:53:46.374Z,69.17
2023-05-05T19:54:52.528Z,69.18
2023-05-05T19:55:54.286Z,69.23
2023-05-05T19:56:57.316Z,69.50
2023-05-05T19:57:59.076Z,69.69
2023-05-05T19:59:02.297Z,69.91
2023-05-05T20:00:04.268Z,69.78
2023-05-05T20:01:05.830Z,70.30
2023-05-05T20:02:09.691Z,70.23
2023-05-05T20:03:12.069Z,70.45
2023-05-05T20:04:13.696Z,70.53
2023-05-05T20:05:17.318Z,70.29
2023-05-05T20:06:18.987Z,70.37
2023-05-05T20:07:20.840Z,70.57
2023-05-05T20:08:22.378Z,70.71
2023-05-05T20:09:24.412Z,70.66
2023-05-05T20:10:26.810Z,71.06
2023-05-05T20:11:28.372Z,71.01
2023-05-05T20:12:30.067Z,71.43
2023-05-05T20:13:32.303Z,71.39
2023-05-05T20:14:34.030Z,71.33
2023-05-05T20:15:35.751Z,71.78
2023-05-05T20:16:39.174Z,71.68
2023-05-05T20:17:40.849Z,71.32
2023-05-05T20:18:42.371Z,72.02
2023-05-05T20:19:44.081Z,72.17
2023-05-05T20:20:45.686Z,72.31
2023-05-05T20:21:47.184Z,72.20
2023-05-05T20:22:49.647Z,72.63
2023-05-05T20:23:51.307Z,72.93
2023-05-05T20:24:53.421Z,73.34
2023-05-05T20:25:56.029Z,73.49
2023-05-05T20:26:57.768Z,73.76
2023-05-05T20:27:59.277Z,73.70
2023-05-05T20:29:01.042Z,73.76
2023-05-05T20:30:03.142Z,73.81
2023-05-05T20:31:07.769Z,74.06
2023-05-05T20:32:09.946Z,74.23
2023-05-05T20:33:11.824Z,74.80
2023-05-05T20:34:14.277Z,74.79
2023-05-05T20:35:16.411Z,75.14
2023-05-05T20:36:18.352Z,74.97
2023-05-05T20:37:22.346Z,75.25
2023-05-05T20:38:23.911Z,75.35
2023-05-05T20:39:26.161Z,75.43
2023-05-05T20:40:28.774Z,75.38
2023-05-05T20:41:30.356Z,75.28
2023-05-05T20:42:32.107Z,75.89
2023-05-05T20:43:33.989Z,75.74
2023-05-05T20:44:35.577Z,75.47
2023-05-05T20:45:37.266Z,75.69
2023-05-05T20:46:39.201Z,75.93
2023-05-05T20:47:41.493Z,75.84
2023-05-05T20:48:44.476Z,75.90
2023-05-05T20:49:46.161Z,75.92
2023-05-05T20:50:47.764Z,75.95
2023-05-05T20:51:49.584Z,75.95
2023-05-05T20:52:51.486Z,76.03
2023-05-05T20:53:53.446Z,75.75
2023-05-05T20:54:55.226Z,75.89
2023-05-05T20:55:56.754Z,75.85
2023-05-05T20:56:58.315Z,75.84
2023-05-05T20:57:59.905Z,76.12
2023-05-05T20:59:01.961Z,76.37
2023-05-05T21:00:04.254Z,76.26
2023-05-05T21:01:06.611Z,76.47
2023-05-05T21:02:08.333Z,76.43
2023-05-05T21:03:10.004Z,76.61
2023-05-05T21:04:11.676Z,76.58
2023-05-05T21:05:14.222Z,76.88
2023-05-05T21:06:15.703Z,76.87
2023-05-05T21:07:17.285Z,76.77
2023-05-05T21:08:18.912Z,76.73
2023-05-05T21:09:22.185Z,76.83
2023-05-05T21:10:23.918Z,77.01
2023-05-05T21:11:25.414Z,77.45
2023-05-05T21:12:29.384Z,77.52
2023-05-05T21:13:32.114Z,77.66
2023-05-05T21:14:34.396Z,77.38
2023-05-05T21:15:37.248Z,77.46
2023-05-05T21:16:39.462Z,77.35
2023-05-05T21:17:41.161Z,77.42
2023-05-05T21:18:46.634Z,77.53
2023-05-05T21:19:48.236Z,77.72
2023-05-05T21:20:49.696Z,77.92
2023-05-05T21:21:51.253Z,77.87
2023-05-05T21:22:53.264Z,77.54
2023-05-05T21:23:57.729Z,78.22
2023-05-05T21:25:16.920Z,78.32
2023-05-05T21:26:19.009Z,78.20
2023-05-05T21:27:21.154Z,78.28
2023-05-05T21:28:22.777Z,78.19
2023-05-05T21:29:27.621Z,78.17
2023-05-05T21:30:29.431Z,78.48
2023-05-05T21:31:31.069Z,78.73
2023-05-05T21:32:32.911Z,78.58
2023-05-05T21:33:34.488Z,78.37
2023-05-05T21:34:36.514Z,78.46
2023-05-05T21:35:38.035Z,78.66
2023-05-05T21:36:39.577Z,78.49
2023-05-05T21:37:41.595Z,78.46
2023-05-05T21:38:43.535Z,78.61
2023-05-05T21:39:45.114Z,78.77
2023-05-05T21:40:46.947Z,78.67
2023-05-05T21:41:48.487Z,78.83
2023-05-05T21:42:50.018Z,78.71
2023-05-05T21:43:51.491Z,78.56
2023-05-05T21:44:53.309Z,78.68
2023-05-05T21:46:01.119Z,78.81
2023-05-05T21:47:02.706Z,78.88
2023-05-05T21:48:04.932Z,78.90
2023-05-05T21:49:14.324Z,78.71
2023-05-05T21:50:17.256Z,78.88
2023-05-05T21:51:19.993Z,78.86
2023-05-05T21:52:25.695Z,78.83
2023-05-05T21:53:27.398Z,78.89
2023-05-05T21:54:30.057Z,79.49
2023-05-05T21:55:31.553Z,79.51
2023-05-05T21:56:33.934Z,79.50
2023-05-05T21:57:36.126Z,79.01
2023-05-05T21:58:37.637Z,78.92
2023-05-05T21:59:39.126Z,79.33
2023-05-05T22:00:42.359Z,79.57
2023-05-05T22:01:43.864Z,79.36
2023-05-05T22:02:45.534Z,79.60
2023-05-05T22:03:47.734Z,79.65
2023-05-05T22:04:52.283Z,79.79
2023-05-05T22:05:53.810Z,79.79
2023-05-05T22:06:55.454Z,79.72
2023-05-05T22:07:57.030Z,80.02
2023-05-05T22:08:58.579Z,80.28
2023-05-05T22:10:00.585Z,79.95
2023-05-05T22:11:02.116Z,79.86
2023-05-05T22:12:07.008Z,79.53
2023-05-05T22:13:10.622Z,79.80
2023-05-05T22:14:12.243Z,79.81
2023-05-05T22:15:14.395Z,79.76
2023-05-05T22:16:17.656Z,79.76
2023-05-05T22:17:19.364Z,79.51
2023-05-05T22:18:20.853Z,79.46
2023-05-05T22:19:22.460Z,79.43
2023-05-05T22:20:24.007Z,79.46
2023-05-05T22:21:27.634Z,79.10
2023-05-05T22:22:29.146Z,79.06
2023-05-05T22:23:30.883Z,79.13
2023-05-05T22:24:32.417Z,79.01
2023-05-05T22:25:33.990Z,79.33
2023-05-05T22:26:35.587Z,79.64
2023-05-05T22:27:37.341Z,79.56
2023-05-05T22:28:38.938Z,79.49
2023-05-05T22:29:40.884Z,79.63
2023-05-05T22:30:42.499Z,79.40
2023-05-05T22:31:44.120Z,79.39
2023-05-05T22:32:46.397Z,79.81
2023-05-05T22:33:47.990Z,79.66
2023-05-05T22:34:49.718Z,79.59
2023-05-05T22:35:52.095Z,79.91
2023-05-05T22:36:53.617Z,79.68
2023-05-05T22:37:55.210Z,80.38
2023-05-05T22:38:56.967Z,80.06
2023-05-05T22:39:58.471Z,80.31
2023-05-05T22:41:00.060Z,80.15
2023-05-05T22:42:01.959Z,80.40
2023-05-05T22:43:03.748Z,79.98
2023-05-05T22:44:05.605Z,80.00
2023-05-05T22:45:08.729Z,80.12
2023-05-05T22:46:10.641Z,79.97
2023-05-05T22:47:13.314Z,80.08
2023-05-05T22:48:15.108Z,79.87
2023-05-05T22:49:16.827Z,80.16
2023-05-05T22:50:19.051Z,79.84
2023-05-05T22:51:20.654Z,80.23
2023-05-05T22:52:22.260Z,80.36
2023-05-05T22:53:23.903Z,79.97
2023-05-05T22:54:25.564Z,80.19
2023-05-05T22:55:27.323Z,80.46
2023-05-05T22:56:29.142Z,80.41
2023-05-05T22:57:30.678Z,80.38
2023-05-05T22:58:32.366Z,80.18
2023-05-05T22:59:33.964Z,80.09
2023-05-05T23:00:35.880Z,79.89
2023-05-05T23:01:37.491Z,80.00
2023-05-05T23:02:39.447Z,79.90
2023-05-05T23:03:41.602Z,79.77
2023-05-05T23:04:46.421Z,79.77
2023-05-05T23:05:47.983Z,79.84
2023-05-05T23:06:49.564Z,79.52
2023-05-05T23:07:51.327Z,79.94